Time;durP1;ratioP1;P1;durP2;ratioP2;P2;SDS_P1;SDS_P2;PMS_P1;PMS_P2;Temp;Humidity;BMP_temperature;BMP_pressure;BME280_temperature;BME280_humidity;BME280_pressure;Samples;Min_cycle;Max_cycle;Signal;HPM_P1;HPM_P2
2020/12/05 00:01:17;;;;;;;34.60;14.68;;;;;;;4.63;77.25;98976.88;1733540;82;22305;-71
2020/12/05 00:03:44;;;;;;;36.40;15.35;;;;;;;4.62;77.22;98982.91;1763539;80;21961;-71
2020/12/05 00:06:11;;;;;;;38.65;16.40;;;;;;;4.58;77.19;98982.05;1734572;81;21176;-70
2020/12/05 00:08:39;;;;;;;40.12;17.27;;;;;;;4.55;77.09;98978.19;1764624;80;21188;-71
2020/12/05 00:11:06;;;;;;;39.95;17.02;;;;;;;4.51;77.18;98972.63;1733985;81;21201;-70
2020/12/05 00:13:33;;;;;;;37.17;17.10;;;;;;;4.48;77.21;98975.22;1765071;80;21177;-70
2020/12/05 00:16:00;;;;;;;40.25;17.50;;;;;;;4.41;77.31;98982.52;1748932;82;21189;-70
2020/12/05 00:18:28;;;;;;;41.33;17.75;;;;;;;4.32;77.62;98985.98;1747890;81;21162;-70
2020/12/05 00:20:56;;;;;;;37.40;14.80;;;;;;;4.26;77.35;98985.99;1759198;81;21176;-70
2020/12/05 00:23:24;;;;;;;34.20;15.10;;;;;;;4.21;77.31;98985.56;1748693;82;21185;-70
2020/12/05 00:25:51;;;;;;;37.58;14.93;;;;;;;4.07;78.09;98979.14;1759182;81;21752;-70
2020/12/05 00:28:19;;;;;;;38.78;14.23;;;;;;;4.02;78.48;98983.02;1797439;79;21198;-70
2020/12/05 00:30:47;;;;;;;32.03;14.28;;;;;;;4.02;78.14;98988.56;1748200;82;21175;-69
2020/12/05 00:33:14;;;;;;;38.15;16.40;;;;;;;3.99;78.77;98985.14;1758056;81;21632;-70
2020/12/05 00:35:42;;;;;;;39.67;16.87;;;;;;;3.98;78.89;98989.02;1759496;81;21189;-70
2020/12/05 00:38:10;;;;;;;37.88;16.52;;;;;;;3.92;78.99;98991.56;1759812;81;21180;-70
2020/12/05 00:40:38;;;;;;;37.70;16.55;;;;;;;3.91;78.73;98991.16;1759523;81;21188;-70
2020/12/05 00:43:05;;;;;;;39.53;17.25;;;;;;;3.87;78.64;99000.58;1735074;81;21167;-70
2020/12/05 00:45:33;;;;;;;39.67;16.60;;;;;;;3.78;78.89;99003.16;1758298;81;21583;-70
2020/12/05 00:48:01;;;;;;;43.02;18.05;;;;;;;3.71;79.66;99013.85;1748591;82;21185;-70
2020/12/05 00:50:29;;;;;;;37.40;17.25;;;;;;;3.69;79.12;99018.57;1758580;81;21189;-70
2020/12/05 00:52:57;;;;;;;35.20;13.78;;;;;;;3.65;78.91;99018.98;1760827;81;21192;-70
2020/12/05 00:55:25;;;;;;;33.63;13.60;;;;;;;3.59;78.69;99020.27;1767869;81;21157;-70
2020/12/05 00:57:52;;;;;;;32.88;14.45;;;;;;;3.53;79.45;99018.53;1766590;81;21350;-69
2020/12/05 01:00:19;;;;;;;48.10;15.95;;;;;;;3.51;79.22;99025.39;1765780;81;21180;-70
2020/12/05 01:02:47;;;;;;;32.65;14.18;;;;;;;3.44;80.02;99027.50;1793927;80;21161;-70
2020/12/05 01:05:15;;;;;;;34.60;13.35;;;;;;;3.41;80.06;99031.80;1793470;80;21138;-70
2020/12/05 01:07:42;;;;;;;34.53;14.25;;;;;;;3.40;80.04;99029.63;1793615;79;21158;-70
2020/12/05 01:10:09;;;;;;;35.28;14.15;;;;;;;3.40;80.30;99033.48;1793164;79;21126;-70
2020/12/05 01:12:38;;;;;;;40.30;13.62;;;;;;;3.36;80.39;99026.22;1792894;80;21610;-70
2020/12/05 01:15:06;;;;;;;38.00;15.18;;;;;;;3.35;80.32;99024.92;1793272;80;21156;-69
2020/12/05 01:17:35;;;;;;;43.52;16.67;;;;;;;3.34;80.39;99030.50;1792760;80;21955;-70
2020/12/05 01:20:06;;;;;;;41.65;17.07;;;;;;;3.32;80.64;99020.64;1792989;80;21629;-70
2020/12/05 01:22:34;;;;;;;43.13;18.57;;;;;;;3.31;80.02;99016.34;1793549;80;21149;-70
2020/12/05 01:25:01;;;;;;;40.25;17.27;;;;;;;3.24;80.77;99018.88;1793725;80;21157;-70
2020/12/05 01:27:29;;;;;;;42.25;16.70;;;;;;;3.22;79.95;99019.31;1792016;80;21186;-70
2020/12/05 01:29:56;;;;;;;37.58;16.05;;;;;;;3.17;80.07;99014.16;1793147;80;21153;-70
2020/12/05 01:32:23;;;;;;;37.78;16.30;;;;;;;3.10;80.87;99004.71;1792730;80;21158;-70
2020/12/05 01:34:51;;;;;;;31.52;13.35;;;;;;;3.06;81.41;98996.56;1793425;80;21189;-70
2020/12/05 01:37:18;;;;;;;41.98;13.85;;;;;;;3.01;81.10;98997.84;1793378;80;21158;-70
2020/12/05 01:39:45;;;;;;;37.58;13.38;;;;;;;3.03;81.03;98982.01;1755805;81;21179;-70
2020/12/05 01:42:13;;;;;;;37.85;15.05;;;;;;;2.95;82.10;98998.67;1793431;80;21474;-70
2020/12/05 01:44:40;;;;;;;36.50;13.38;;;;;;;2.99;81.88;98993.97;1793290;80;21169;-70
2020/12/05 01:47:11;;;;;;;39.80;15.85;;;;;;;2.94;82.46;99008.49;1793037;80;22225;-70
2020/12/05 01:49:38;;;;;;;34.67;14.20;;;;;;;2.95;82.03;98997.38;1793298;80;21193;-70
2020/12/05 01:52:06;;;;;;;39.58;14.98;;;;;;;2.93;82.33;99005.51;1793655;79;21154;-70
2020/12/05 01:54:36;;;;;;;38.20;14.35;;;;;;;2.94;81.83;98998.22;1796929;79;21599;-70
2020/12/05 01:57:05;;;;;;;37.83;15.75;;;;;;;2.94;81.96;99003.36;1798783;79;21149;-70
2020/12/05 01:59:32;;;;;;;38.88;15.95;;;;;;;2.93;82.40;98995.67;1744218;82;21153;-70
2020/12/05 02:02:04;;;;;;;37.78;16.60;;;;;;;2.93;82.04;98994.39;1806181;79;21153;-70
2020/12/05 02:04:36;;;;;;;37.35;16.45;;;;;;;2.95;81.60;99002.52;1805877;79;21489;-70
2020/12/05 02:07:39;;;;;;;36.15;15.10;;;;;;;2.95;82.62;99002.52;1800378;79;21423;-70
2020/12/05 02:10:20;;;;;;;39.25;16.00;;;;;;;3.03;82.43;99005.56;1800951;78;23128;-72
2020/12/05 02:12:53;;;;;;;35.85;15.30;;;;;;;2.99;82.88;98989.27;1804665;79;21168;-71
2020/12/05 02:15:31;;;;;;;35.83;13.55;;;;;;;3.05;83.12;98998.72;1900994;75;23031;-71
2020/12/05 02:18:03;;;;;;;35.03;13.28;;;;;;;2.96;83.51;99006.82;1878384;75;21132;-71
2020/12/05 02:20:34;;;;;;;35.48;13.03;;;;;;;2.96;82.48;99004.25;1878657;75;21152;-71
2020/12/05 02:23:19;;;;;;;33.33;12.23;;;;;;;2.92;82.75;99000.36;1878752;75;21141;-70
2020/12/05 02:25:54;;;;;;;34.92;14.15;;;;;;;2.87;83.25;99000.35;1879103;75;21113;-70
2020/12/05 02:28:23;;;;;;;28.42;12.73;;;;;;;2.86;83.19;98992.63;1880331;75;21105;-71
2020/12/05 02:30:50;;;;;;;32.25;12.73;;;;;;;2.86;82.71;98987.50;1842887;75;21549;-71
2020/12/05 02:33:19;;;;;;;30.37;13.75;;;;;;;2.87;82.60;98983.66;1880060;75;21184;-70
2020/12/05 02:35:46;;;;;;;33.30;13.35;;;;;;;2.79;83.52;98982.77;1879187;75;21098;-71
2020/12/05 02:38:24;;;;;;;36.80;15.40;;;;;;;2.81;82.96;98979.78;1806707;79;21165;-71
2020/12/05 02:40:52;;;;;;;38.28;14.60;;;;;;;2.77;82.70;98987.89;1819168;78;21133;-71
2020/12/05 02:43:19;;;;;;;35.88;15.13;;;;;;;2.68;83.53;98988.27;1814776;79;21105;-71
2020/12/05 02:45:47;;;;;;;34.43;15.30;;;;;;;2.67;83.49;98996.84;1828488;78;21117;-71
2020/12/05 02:48:14;;;;;;;31.33;12.82;;;;;;;2.68;82.77;98983.98;1831210;78;21113;-70
2020/12/05 02:50:41;;;;;;;34.60;13.53;;;;;;;2.66;83.50;98970.72;1828398;78;21132;-71
2020/12/05 02:53:09;;;;;;;33.08;12.37;;;;;;;2.69;83.90;98974.60;1830419;78;21132;-71
2020/12/05 02:55:36;;;;;;;38.42;13.43;;;;;;;2.70;83.37;98975.02;1828492;78;21117;-71
2020/12/05 02:58:03;;;;;;;32.35;13.00;;;;;;;2.61;83.75;98963.02;1829819;78;21121;-70
2020/12/05 03:00:31;;;;;;;36.68;13.98;;;;;;;2.71;83.58;98976.75;1826751;78;21125;-71
2020/12/05 03:02:58;;;;;;;32.35;13.05;;;;;;;2.70;84.23;98982.72;1829522;78;21145;-71
2020/12/05 03:05:25;;;;;;;31.07;12.70;;;;;;;2.73;84.03;98972.05;1825525;78;21136;-70
2020/12/05 03:07:53;;;;;;;32.80;13.03;;;;;;;2.72;83.77;98973.31;1827492;78;21137;-70
2020/12/05 03:10:20;;;;;;;33.42;13.00;;;;;;;2.71;83.67;98978.88;1826837;78;21171;-71
2020/12/05 03:12:47;;;;;;;37.45;14.53;;;;;;;2.71;83.30;98975.47;1828887;78;21153;-71
2020/12/05 03:15:15;;;;;;;35.05;14.43;;;;;;;2.68;83.54;98976.28;1826063;78;21114;-71
2020/12/05 03:17:42;;;;;;;33.92;14.30;;;;;;;2.68;83.14;98976.28;1801485;78;21279;-71
2020/12/05 03:20:11;;;;;;;33.85;14.35;;;;;;;2.63;83.12;98975.86;1827463;78;21105;-71
2020/12/05 03:22:38;;;;;;;31.90;14.43;;;;;;;2.56;83.57;98978.37;1826233;78;21629;-71
2020/12/05 03:25:06;;;;;;;40.38;15.70;;;;;;;2.55;83.17;98976.66;1825244;78;21704;-71
2020/12/05 03:27:33;;;;;;;43.20;18.62;;;;;;;2.51;82.73;98977.50;1826845;78;21137;-71
2020/12/05 03:30:01;;;;;;;29.90;12.85;;;;;;;2.45;83.33;98983.00;1825795;78;21129;-71
2020/12/05 03:32:30;;;;;;;35.15;13.83;;;;;;;2.38;83.42;98984.69;1789317;79;22251;-71
2020/12/05 03:34:58;;;;;;;35.95;13.58;;;;;;;2.35;83.61;98988.53;1804549;79;21158;-71
2020/12/05 03:37:27;;;;;;;35.68;12.73;;;;;;;2.28;85.08;98981.20;1805593;79;21614;-71
2020/12/05 03:39:55;;;;;;;37.00;13.25;;;;;;;2.34;83.41;98990.66;1805466;79;21129;-71
2020/12/05 03:42:22;;;;;;;33.18;13.40;;;;;;;2.32;84.76;98977.81;1806438;79;21137;-70
2020/12/05 03:44:49;;;;;;;36.58;13.08;;;;;;;2.34;84.53;98986.38;1805647;79;21170;-71
2020/12/05 03:47:17;;;;;;;32.42;12.58;;;;;;;2.34;84.78;98988.08;1806490;79;21126;-71
2020/12/05 03:49:44;;;;;;;32.93;12.88;;;;;;;2.34;85.24;98993.22;1806750;79;21122;-71
2020/12/05 03:52:12;;;;;;;33.55;12.58;;;;;;;2.39;85.44;98983.86;1806795;79;21118;-71
2020/12/05 03:54:39;;;;;;;36.30;12.95;;;;;;;2.41;85.32;98997.55;1806654;79;21133;-71
2020/12/05 03:57:06;;;;;;;36.55;14.15;;;;;;;2.41;85.93;98994.98;1805520;79;21118;-71
2020/12/05 03:59:34;;;;;;;31.95;14.43;;;;;;;2.46;85.29;98994.56;1805674;79;21684;-71
2020/12/05 04:02:02;;;;;;;28.70;12.95;;;;;;;2.45;85.21;99000.56;1801207;79;21128;-71
2020/12/05 04:04:29;;;;;;;38.38;15.00;;;;;;;2.44;85.43;99007.81;1820175;79;21121;-71
2020/12/05 04:06:57;;;;;;;34.23;14.13;;;;;;;2.44;84.27;99016.80;1818142;79;21140;-71
2020/12/05 04:09:25;;;;;;;33.10;13.35;;;;;;;2.39;84.67;99011.64;1820890;79;21157;-71
2020/12/05 04:11:52;;;;;;;29.85;12.85;;;;;;;2.37;85.51;99015.06;1817354;79;21121;-71
2020/12/05 04:14:19;;;;;;;35.45;12.15;;;;;;;2.39;85.54;99009.52;1822549;78;21168;-71
2020/12/05 04:16:47;;;;;;;31.23;11.73;;;;;;;2.42;85.64;99012.52;1828239;78;21132;-71
2020/12/05 04:19:14;;;;;;;29.25;11.55;;;;;;;2.45;85.53;99014.68;1829399;78;21148;-70
2020/12/05 04:21:41;;;;;;;33.80;12.33;;;;;;;2.48;85.28;99012.11;1825837;78;21138;-70
2020/12/05 04:24:09;;;;;;;27.65;11.43;;;;;;;2.52;84.63;98997.17;1829557;78;21121;-73
2020/12/05 04:26:36;;;;;;;28.67;12.03;;;;;;;2.54;85.23;98999.75;1826836;78;21130;-71
2020/12/05 04:29:03;;;;;;;30.43;12.65;;;;;;;2.59;85.25;98998.93;1829188;78;22033;-71
2020/12/05 04:31:30;;;;;;;37.08;11.68;;;;;;;2.65;85.16;98999.83;1827431;78;21125;-71
2020/12/05 04:33:58;;;;;;;31.12;12.98;;;;;;;2.65;85.42;99001.96;1828845;78;21161;-71
2020/12/05 04:36:25;;;;;;;34.43;15.25;;;;;;;2.73;85.60;99015.69;1826890;78;21123;-71
2020/12/05 04:38:53;;;;;;;32.42;14.45;;;;;;;2.78;85.10;99005.00;1830492;78;21117;-71
2020/12/05 04:41:20;;;;;;;39.03;15.30;;;;;;;2.79;85.15;99012.30;1828212;78;21130;-71
2020/12/05 04:43:48;;;;;;;36.08;16.23;;;;;;;2.83;84.27;99007.61;1829971;78;21570;-71
2020/12/05 04:46:17;;;;;;;33.50;13.78;;;;;;;2.80;85.50;99010.15;1826580;78;21121;-71
2020/12/05 04:48:47;;;;;;;28.02;13.60;;;;;;;2.81;85.48;99020.87;1830044;78;21148;-71
2020/12/05 04:51:19;;;;;;;31.82;13.60;;;;;;;2.81;84.79;99018.73;1827516;78;21118;-71
2020/12/05 04:53:48;;;;;;;31.55;12.13;;;;;;;2.79;84.38;99025.14;1829150;78;21154;-71
2020/12/05 04:56:16;;;;;;;29.52;12.23;;;;;;;2.78;83.55;99024.69;1827855;78;21129;-71
2020/12/05 04:58:48;;;;;;;29.98;11.25;;;;;;;2.77;85.09;99012.28;1827892;78;21098;-71
2020/12/05 05:01:19;;;;;;;30.88;12.37;;;;;;;2.78;85.67;99009.28;1827980;78;21874;-71
2020/12/05 05:03:46;;;;;;;31.30;11.60;;;;;;;2.77;85.04;99014.85;1828834;78;21566;-71
2020/12/05 05:06:21;;;;;;;29.23;13.08;;;;;;;2.78;85.43;99022.12;1826497;78;21888;-71
2020/12/05 05:08:48;;;;;;;37.98;15.05;;;;;;;2.75;85.55;99028.11;1827873;78;21866;-71
2020/12/05 05:11:18;;;;;;;36.75;13.95;;;;;;;2.80;84.90;99019.13;1827469;78;21128;-71
2020/12/05 05:14:00;;;;;;;40.55;13.78;;;;;;;2.82;86.36;99021.28;1828126;78;21189;-71
2020/12/05 05:16:28;;;;;;;40.73;14.87;;;;;;;2.87;85.65;99029.88;1827028;78;21098;-71
2020/12/05 05:19:01;;;;;;;35.00;14.35;;;;;;;2.90;84.94;99028.59;1828822;78;21145;-71
2020/12/05 05:21:39;;;;;;;37.35;14.63;;;;;;;2.93;85.96;99034.19;1823998;78;21838;-71
2020/12/05 05:24:12;;;;;;;38.53;15.05;;;;;;;2.94;85.59;99033.33;1829445;78;21152;-70
2020/12/05 05:26:40;;;;;;;34.87;14.73;;;;;;;2.95;85.59;99041.48;1827824;78;21971;-71
2020/12/05 05:29:35;;;;;;;31.55;14.25;;;;;;;2.96;85.75;99044.46;1829741;78;21137;-71
2020/12/05 05:34:34;;;;;;;48.38;18.73;;;;;;;2.95;84.94;99053.88;1828557;78;22214;-71
2020/12/05 05:37:14;;;;;;;42.23;16.00;;;;;;;2.92;84.57;99052.57;1827287;78;21117;-71
2020/12/05 05:39:54;;;;;;;38.08;16.12;;;;;;;2.88;84.49;99046.14;1828945;78;21120;-71
2020/12/05 05:42:30;;;;;;;34.30;14.63;;;;;;;2.81;84.78;99063.23;1827007;78;21117;-71
2020/12/05 05:45:25;;;;;;;40.25;15.15;;;;;;;2.77;84.80;99070.05;1826898;78;21550;-71
2020/12/05 05:48:03;;;;;;;44.93;16.80;;;;;;;2.71;84.49;99064.88;1828054;78;21121;-70
2020/12/05 05:50:33;;;;;;;42.88;19.45;;;;;;;2.65;84.90;99054.58;1828085;78;21927;-71
2020/12/05 05:53:06;;;;;;;47.85;18.85;;;;;;;2.59;85.99;99059.25;1828604;78;21125;-71
2020/12/05 05:55:48;;;;;;;40.70;15.28;;;;;;;2.57;85.40;99057.09;1827200;78;21652;-71
2020/12/05 05:58:21;;;;;;;37.78;15.65;;;;;;;2.56;84.82;99063.49;1827279;78;21121;-70
2020/12/05 06:00:53;;;;;;;36.98;14.70;;;;;;;2.53;85.10;99075.04;1828069;78;21121;-71
2020/12/05 06:03:25;;;;;;;40.03;15.88;;;;;;;2.50;87.04;99073.28;1829216;78;21125;-70
2020/12/05 06:05:58;;;;;;;37.83;15.55;;;;;;;2.54;85.58;99071.17;1827622;78;21129;-71
2020/12/05 06:08:29;;;;;;;36.42;14.55;;;;;;;2.56;86.13;99077.17;1827844;78;21129;-71
2020/12/05 06:11:05;;;;;;;34.65;15.40;;;;;;;2.62;86.63;99067.81;1828178;78;21215;-71
2020/12/05 06:13:33;;;;;;;43.65;16.90;;;;;;;2.65;86.08;99075.55;1826792;78;21145;-71
2020/12/05 06:16:02;;;;;;;43.10;17.75;;;;;;;2.67;86.51;99075.13;1818619;78;21378;-71
2020/12/05 06:18:30;;;;;;;38.75;17.25;;;;;;;2.70;86.84;99086.25;1820158;79;21165;-71
2020/12/05 06:20:58;;;;;;;37.35;17.02;;;;;;;2.74;87.25;99077.72;1818878;79;21130;-71
2020/12/05 06:23:51;;;;;;;36.42;16.50;;;;;;;2.79;87.00;99088.89;1819397;79;21152;-71
2020/12/05 06:26:28;;;;;;;37.53;17.37;;;;;;;2.84;86.70;99078.64;1818030;79;21157;-71
2020/12/05 06:29:22;;;;;;;39.88;17.85;;;;;;;2.90;86.06;99074.81;1792481;77;23004;-71
2020/12/05 06:31:50;;;;;;;38.88;17.98;;;;;;;2.86;85.85;99082.07;1811982;79;21585;-71
2020/12/05 06:34:41;;;;;;;37.17;15.98;;;;;;;2.85;85.63;99088.07;1808248;78;21617;-72
2020/12/05 06:37:12;;;;;;;35.80;14.83;;;;;;;2.82;86.30;99081.63;1808872;78;21172;-71
2020/12/05 06:39:39;;;;;;;31.07;13.00;;;;;;;2.91;86.20;99092.39;1818135;78;21130;-71
2020/12/05 06:42:18;;;;;;;35.70;15.08;;;;;;;3.01;87.39;99101.01;1822786;78;21985;-71
2020/12/05 06:44:46;;;;;;;31.00;13.72;;;;;;;3.11;87.46;99096.34;1812631;78;21571;-71
2020/12/05 06:47:25;;;;;;;37.20;14.60;;;;;;;3.20;86.37;99096.38;1816473;78;22332;-71
2020/12/05 06:49:53;;;;;;;36.33;14.13;;;;;;;3.26;86.72;99091.69;1804678;79;21137;-71
2020/12/05 06:52:31;;;;;;;35.90;14.28;;;;;;;3.32;86.42;99102.88;1808772;78;21098;-71
2020/12/05 06:55:14;;;;;;;34.90;13.53;;;;;;;3.42;86.32;99099.03;1808179;78;22376;-71
2020/12/05 06:57:42;;;;;;;31.93;13.32;;;;;;;3.49;85.92;99107.21;1804197;79;21169;-71
2020/12/05 07:00:34;;;;;;;29.35;13.65;;;;;;;3.52;85.65;99109.37;1808673;78;21515;-71
2020/12/05 07:03:10;;;;;;;37.05;16.50;;;;;;;3.64;85.49;99116.67;1797477;78;23539;-71
2020/12/05 07:05:48;;;;;;;36.63;15.98;;;;;;;3.62;85.41;99117.98;1763284;80;21168;-71
2020/12/05 07:08:28;;;;;;;35.48;15.80;;;;;;;3.66;85.50;99118.42;1780812;80;21168;-71
2020/12/05 07:11:07;;;;;;;31.10;14.78;;;;;;;3.73;85.38;99118.00;1795062;80;21123;-71
2020/12/05 07:13:45;;;;;;;32.90;14.58;;;;;;;3.78;85.21;99119.73;1781832;80;21144;-71
2020/12/05 07:16:25;;;;;;;43.70;17.92;;;;;;;3.82;85.18;99111.61;1795312;80;21154;-71
2020/12/05 07:18:58;;;;;;;40.63;17.57;;;;;;;3.85;85.03;99112.88;1767029;81;21578;-71
2020/12/05 07:21:28;;;;;;;39.15;17.50;;;;;;;3.87;84.80;99118.89;1781616;80;21173;-71
2020/12/05 07:23:56;;;;;;;38.53;18.17;;;;;;;3.91;84.17;99127.04;1738239;81;21140;-71
2020/12/05 07:26:25;;;;;;;38.05;15.88;;;;;;;3.90;84.50;99124.45;1727388;83;21149;-70
2020/12/05 07:28:57;;;;;;;33.75;14.70;;;;;;;3.96;83.81;99126.63;1792542;80;21993;-71
2020/12/05 07:31:26;;;;;;;39.23;16.25;;;;;;;3.97;84.00;99121.05;1744142;82;21116;-71
2020/12/05 07:33:54;;;;;;;36.93;15.88;;;;;;;3.98;84.21;99121.50;1794972;80;21144;-71
2020/12/05 07:36:21;;;;;;;31.65;14.30;;;;;;;4.08;84.23;99121.94;1765342;81;21148;-71
2020/12/05 07:38:49;;;;;;;38.33;14.53;;;;;;;4.13;84.03;99126.64;1795366;80;21574;-71
2020/12/05 07:41:19;;;;;;;35.03;15.55;;;;;;;4.15;83.95;99124.08;1795283;80;21577;-71
2020/12/05 07:43:48;;;;;;;38.70;15.88;;;;;;;4.25;84.00;99137.39;1781520;80;21156;-71
2020/12/05 07:46:16;;;;;;;32.75;14.13;;;;;;;4.32;84.00;99142.13;1794166;80;21145;-71
2020/12/05 07:48:44;;;;;;;40.63;17.90;;;;;;;4.41;83.74;99133.55;1781455;80;21126;-71
2020/12/05 07:51:15;;;;;;;37.53;18.07;;;;;;;4.48;83.60;99130.98;1781604;80;21568;-71
2020/12/05 07:53:44;;;;;;;42.15;18.55;;;;;;;4.60;83.42;99126.69;1766193;81;21625;-71
2020/12/05 07:56:20;;;;;;;44.75;19.50;;;;;;;4.68;83.53;99130.12;1795186;80;21127;-71
2020/12/05 07:58:54;;;;;;;43.50;18.37;;;;;;;4.79;82.99;99128.37;1795029;80;21134;-71
2020/12/05 08:02:00;;;;;;;46.33;23.98;;;;;;;4.87;82.80;99140.80;1795249;80;21200;-71
2020/12/05 08:04:41;;;;;;;35.75;14.43;;;;;;;4.91;83.01;99142.52;1780964;80;21101;-71
2020/12/05 08:07:37;;;;;;;32.13;13.88;;;;;;;4.97;82.51;99142.53;1765127;81;21141;-71
2020/12/05 08:10:10;;;;;;;29.45;13.35;;;;;;;5.04;82.47;99143.37;1794277;80;21154;-71
2020/12/05 08:13:03;;;;;;;35.95;15.80;;;;;;;5.15;82.58;99150.66;1765533;81;21161;-71
2020/12/05 08:15:39;;;;;;;34.33;15.65;;;;;;;5.24;82.21;99147.19;1801429;78;23083;-70
2020/12/05 08:18:06;;;;;;;42.10;18.30;;;;;;;5.28;82.48;99149.33;1811801;78;21129;-71
2020/12/05 08:20:43;;;;;;;35.78;15.75;;;;;;;5.37;82.80;99156.61;1807279;78;21160;-71
2020/12/05 08:23:39;;;;;;;43.80;17.98;;;;;;;5.47;82.10;99154.86;1895899;75;22896;-70
2020/12/05 08:26:14;;;;;;;42.70;19.23;;;;;;;5.46;82.25;99158.28;1894058;75;21517;-72
2020/12/05 08:28:43;;;;;;;36.50;17.87;;;;;;;5.45;81.92;99160.45;1894943;75;21121;-73
2020/12/05 08:31:12;;;;;;;42.45;18.12;;;;;;;5.51;81.91;99165.59;1894511;75;21148;-72
2020/12/05 08:33:49;;;;;;;39.13;19.40;;;;;;;5.57;81.72;99181.04;1895783;75;21086;-72
2020/12/05 08:36:24;;;;;;;34.85;18.02;;;;;;;5.63;81.67;99181.86;1894500;75;21271;-73
2020/12/05 08:38:56;;;;;;;36.23;18.60;;;;;;;5.65;81.61;99162.95;1895830;75;21227;-72
2020/12/05 08:41:24;;;;;;;41.28;16.77;;;;;;;5.83;81.40;99176.21;1895948;75;21114;-72
2020/12/05 08:43:52;;;;;;;46.08;19.00;;;;;;;5.95;81.42;99163.71;1896253;75;21096;-73
2020/12/05 08:46:22;;;;;;;50.67;21.45;;;;;;;6.10;81.49;99168.77;1894321;75;21250;-72
2020/12/05 08:48:50;;;;;;;42.30;18.10;;;;;;;6.21;81.35;99178.16;1895285;75;21105;-72
2020/12/05 08:51:26;;;;;;;38.60;17.50;;;;;;;6.35;80.58;99178.52;1894900;75;21676;-73
2020/12/05 08:54:07;;;;;;;39.38;17.48;;;;;;;6.51;81.28;99167.64;1895997;75;21258;-72
2020/12/05 08:56:34;;;;;;;41.45;17.82;;;;;;;6.62;80.55;99171.87;1896050;75;21529;-73
2020/12/05 08:59:01;;;;;;;38.23;18.90;;;;;;;6.76;79.69;99170.91;1896848;75;22049;-71
2020/12/05 09:01:42;;;;;;;46.60;21.30;;;;;;;6.88;79.92;99167.77;1893622;75;21110;-70
2020/12/05 09:04:17;;;;;;;43.55;19.67;;;;;;;6.96;79.57;99173.72;1896326;75;21700;-70
2020/12/05 09:06:45;;;;;;;43.13;20.02;;;;;;;7.09;79.47;99174.48;1890518;75;21282;-70
2020/12/05 09:09:12;;;;;;;45.92;19.60;;;;;;;7.20;78.33;99175.66;1895833;75;21251;-70
2020/12/05 09:11:39;;;;;;;47.55;20.35;;;;;;;7.22;78.30;99173.50;1895855;75;21695;-71
2020/12/05 09:14:07;;;;;;;40.95;19.73;;;;;;;7.28;78.13;99164.79;1896351;75;21239;-70
2020/12/05 09:16:34;;;;;;;36.70;16.37;;;;;;;7.37;78.90;99161.67;1895270;75;21712;-70
2020/12/05 09:19:02;;;;;;;39.10;16.32;;;;;;;7.42;78.32;99154.30;1895604;75;21250;-70
2020/12/05 09:21:35;;;;;;;41.48;17.55;;;;;;;7.51;78.06;99165.39;1895822;75;21144;-70
2020/12/05 09:24:05;;;;;;;40.33;16.85;;;;;;;7.60;78.10;99159.69;1895943;75;21803;-70
2020/12/05 09:26:33;;;;;;;39.90;18.55;;;;;;;7.69;78.14;99159.59;1896313;75;21274;-70
2020/12/05 09:29:01;;;;;;;43.73;19.95;;;;;;;7.83;78.69;99154.24;1863463;75;21561;-70
2020/12/05 09:31:29;;;;;;;44.35;18.00;;;;;;;7.99;76.95;99150.56;1896098;75;21132;-70
2020/12/05 09:33:56;;;;;;;44.10;20.15;;;;;;;8.15;77.66;99152.50;1895275;75;21096;-70
2020/12/05 09:36:24;;;;;;;44.50;20.82;;;;;;;8.30;77.78;99149.69;1895595;75;21115;-70
2020/12/05 09:38:51;;;;;;;43.65;21.00;;;;;;;8.44;76.68;99146.08;1896005;75;21119;-70
2020/12/05 09:41:18;;;;;;;68.55;26.85;;;;;;;8.59;76.15;99147.11;1895402;75;21605;-70
2020/12/05 09:43:45;;;;;;;50.92;22.52;;;;;;;8.68;77.39;99146.13;1895963;75;21082;-70
2020/12/05 09:46:13;;;;;;;41.15;19.00;;;;;;;8.77;75.42;99147.24;1894752;75;21113;-70
2020/12/05 09:48:40;;;;;;;41.30;18.90;;;;;;;8.91;74.91;99138.81;1894914;75;21124;-70
2020/12/05 09:51:07;;;;;;;47.98;21.75;;;;;;;9.03;75.08;99127.78;1894158;75;21109;-70
2020/12/05 09:53:35;;;;;;;47.10;22.52;;;;;;;9.21;75.50;99133.06;1895367;75;21101;-70
2020/12/05 09:56:02;;;;;;;51.77;23.60;;;;;;;9.42;74.32;99142.19;1895388;75;21074;-70
2020/12/05 09:58:29;;;;;;;39.53;22.62;;;;;;;9.62;74.25;99132.26;1894509;75;21117;-70
2020/12/05 10:00:57;;;;;;;39.25;19.77;;;;;;;9.83;73.06;99135.28;1895227;75;21167;-70
2020/12/05 10:03:24;;;;;;;38.20;19.00;;;;;;;10.05;75.08;99131.34;1894231;75;21107;-70
2020/12/05 10:05:51;;;;;;;45.55;19.05;;;;;;;10.22;73.39;99141.34;1893029;75;21983;-70
2020/12/05 10:08:19;;;;;;;35.85;18.82;;;;;;;10.40;73.70;99132.75;1895552;75;21104;-70
2020/12/05 10:10:46;;;;;;;39.25;20.32;;;;;;;10.55;73.77;99137.13;1895261;75;21122;-70
2020/12/05 10:13:13;;;;;;;36.90;19.85;;;;;;;10.69;72.23;99139.39;1895675;75;21098;-71
2020/12/05 10:15:40;;;;;;;38.45;19.27;;;;;;;10.82;71.54;99137.33;1895184;75;21132;-71
2020/12/05 10:18:08;;;;;;;33.88;17.12;;;;;;;10.98;72.66;99137.78;1893696;75;21135;-71
2020/12/05 10:20:35;;;;;;;35.28;17.82;;;;;;;11.14;70.13;99127.41;1892634;75;21164;-70
2020/12/05 10:23:03;;;;;;;41.28;17.67;;;;;;;11.36;72.78;99125.52;1895597;75;21136;-70
2020/12/05 10:25:32;;;;;;;42.62;19.40;;;;;;;11.47;70.01;99123.91;1893438;75;21474;-70
2020/12/05 10:27:59;;;;;;;36.38;18.87;;;;;;;11.59;71.04;99128.76;1894944;75;21152;-70
2020/12/05 10:30:27;;;;;;;43.38;21.60;;;;;;;11.65;68.47;99121.22;1894344;75;22253;-70
2020/12/05 10:32:54;;;;;;;39.83;18.92;;;;;;;11.73;69.08;99117.48;1894855;75;21102;-71
2020/12/05 10:35:21;;;;;;;37.98;18.55;;;;;;;11.83;69.70;99105.50;1894278;75;21165;-71
2020/12/05 10:37:50;;;;;;;41.60;18.15;;;;;;;11.93;69.38;99101.28;1894522;75;21136;-70
2020/12/05 10:40:17;;;;;;;44.88;20.30;;;;;;;12.06;68.88;99108.30;1895022;75;21597;-71
2020/12/05 10:42:44;;;;;;;57.83;25.35;;;;;;;12.12;66.39;99112.02;1894160;75;21160;-70
2020/12/05 10:45:12;;;;;;;98.95;43.15;;;;;;;12.24;68.05;99104.27;1894600;75;21172;-71
2020/12/05 10:47:39;;;;;;;55.03;23.12;;;;;;;12.38;68.86;99101.67;1896381;75;21148;-71
2020/12/05 10:50:06;;;;;;;46.68;21.07;;;;;;;12.44;67.23;99102.77;1894572;75;21128;-70
2020/12/05 10:52:34;;;;;;;39.78;17.73;;;;;;;12.54;68.33;99101.56;1894938;75;21124;-71
2020/12/05 10:55:01;;;;;;;39.60;17.25;;;;;;;12.61;67.93;99105.66;1896077;75;21160;-70
2020/12/05 10:57:29;;;;;;;37.70;19.07;;;;;;;12.57;67.70;99106.66;1893523;75;21148;-71
2020/12/05 10:59:56;;;;;;;40.03;17.87;;;;;;;12.62;67.36;99101.31;1895722;75;21131;-71
2020/12/05 11:02:24;;;;;;;32.67;15.38;;;;;;;12.68;66.71;99098.04;1895107;75;21136;-71
2020/12/05 11:04:51;;;;;;;34.58;16.00;;;;;;;12.76;65.64;99106.07;1895423;75;21144;-70
2020/12/05 11:07:18;;;;;;;31.70;16.20;;;;;;;12.91;66.00;99111.62;1894656;75;21621;-71
2020/12/05 11:09:46;;;;;;;32.08;16.05;;;;;;;13.12;66.10;99090.89;1895830;75;21570;-70
2020/12/05 11:12:14;;;;;;;36.90;16.52;;;;;;;13.26;66.32;99092.55;1893702;75;21093;-71
2020/12/05 11:14:42;;;;;;;41.33;21.10;;;;;;;13.40;65.75;99092.08;1895567;75;21137;-71
2020/12/05 11:17:10;;;;;;;35.95;18.92;;;;;;;13.45;63.62;99104.95;1894061;75;21144;-71
2020/12/05 11:19:37;;;;;;;33.75;14.30;;;;;;;13.62;65.87;99103.88;1895500;75;21446;-70
2020/12/05 11:22:04;;;;;;;30.43;14.87;;;;;;;13.76;64.56;99097.30;1894362;75;21192;-71
2020/12/05 11:24:32;;;;;;;24.90;13.25;;;;;;;13.81;64.02;99084.92;1894037;75;21132;-71
2020/12/05 11:26:59;;;;;;;26.93;15.08;;;;;;;13.89;64.30;99095.92;1892395;75;21106;-71
2020/12/05 11:29:26;;;;;;;31.17;16.07;;;;;;;13.83;64.39;99087.02;1893384;75;21600;-71
2020/12/05 11:31:55;;;;;;;37.65;16.73;;;;;;;13.80;64.24;99088.43;1892612;75;21109;-70
2020/12/05 11:34:22;;;;;;;35.25;18.77;;;;;;;13.70;63.94;99090.54;1894539;75;21101;-70
2020/12/05 11:36:52;;;;;;;37.38;18.12;;;;;;;13.69;63.95;99088.85;1893552;75;21109;-70
2020/12/05 11:39:19;;;;;;;32.95;17.67;;;;;;;13.65;64.41;99089.41;1893979;75;21124;-70
2020/12/05 11:41:47;;;;;;;33.38;16.52;;;;;;;13.62;63.13;99096.51;1893423;75;21641;-71